createdAt,value
2022-11-30T00:01:34.106Z,101011.84
2022-11-30T00:04:02.331Z,101016.13
2022-11-30T00:06:30.629Z,101021.16
2022-11-30T00:08:59.851Z,101018.63
2022-11-30T00:11:29.894Z,101010.91
2022-11-30T00:14:00.852Z,101012.78
2022-11-30T00:16:30.627Z,101015.31
2022-11-30T00:18:58.871Z,101009.34
2022-11-30T00:21:28.734Z,101011.16
2022-11-30T00:23:57.014Z,101008.34
2022-11-30T00:26:25.237Z,101013.53
2022-11-30T00:28:53.751Z,101013.59
2022-11-30T00:31:22.103Z,101007.50
2022-11-30T00:33:52.227Z,101004.25
2022-11-30T00:36:22.717Z,101004.88
2022-11-30T00:38:52.366Z,101007.31
2022-11-30T00:41:21.224Z,101001.28
2022-11-30T00:43:49.570Z,101002.22
2022-11-30T00:46:18.784Z,101002.13
2022-11-30T00:48:47.312Z,101005.59
2022-11-30T00:51:17.784Z,100999.66
2022-11-30T00:53:47.755Z,101000.34
2022-11-30T00:56:16.099Z,100996.25
2022-11-30T00:58:44.445Z,100991.94
2022-11-30T01:01:13.828Z,100997.06
2022-11-30T01:03:42.625Z,100999.81
2022-11-30T01:06:11.429Z,100995.19
2022-11-30T01:08:41.245Z,100998.47
2022-11-30T01:11:13.383Z,100994.16
2022-11-30T01:13:42.021Z,100993.38
2022-11-30T01:16:13.159Z,100988.25
2022-11-30T01:18:43.683Z,100985.88
2022-11-30T01:21:14.591Z,100990.28
2022-11-30T01:23:44.554Z,100988.41
2022-11-30T01:26:14.379Z,100983.22
2022-11-30T01:28:44.387Z,100970.28
2022-11-30T01:31:14.536Z,100979.03
2022-11-30T01:33:43.284Z,100981.44
2022-11-30T01:36:14.966Z,100970.28
2022-11-30T01:38:46.129Z,100979.72
2022-11-30T01:41:16.640Z,100981.81
2022-11-30T01:43:46.966Z,100976.50
2022-11-30T01:46:30.182Z,100976.03
2022-11-30T01:49:07.654Z,100978.66
2022-11-30T01:51:42.349Z,100977.75
2022-11-30T01:54:14.358Z,100975.19
2022-11-30T01:56:46.228Z,100981.09
2022-11-30T01:59:15.432Z,100982.06
2022-11-30T02:01:44.273Z,100977.66
2022-11-30T02:04:19.603Z,100981.22
2022-11-30T02:06:49.488Z,100982.06
2022-11-30T02:09:21.334Z,100982.09
2022-11-30T02:11:51.842Z,100989.09
2022-11-30T02:14:31.566Z,100980.66
2022-11-30T02:17:11.949Z,100975.56
2022-11-30T02:20:19.748Z,100978.78
2022-11-30T02:23:00.456Z,100978.84
2022-11-30T02:25:41.427Z,100984.75
2022-11-30T02:28:36.319Z,100986.38
2022-11-30T02:31:12.727Z,100988.00
2022-11-30T02:33:43.118Z,100989.81
2022-11-30T02:36:11.745Z,100993.31
2022-11-30T02:38:40.908Z,100988.19
2022-11-30T02:41:09.697Z,101000.28
2022-11-30T02:43:38.205Z,100993.31
2022-11-30T02:46:12.990Z,100995.84
2022-11-30T02:48:47.814Z,100998.56
2022-11-30T02:51:19.941Z,100991.59
2022-11-30T02:53:49.240Z,100989.84
2022-11-30T02:56:19.917Z,100988.13
2022-11-30T02:58:48.526Z,100991.53
2022-11-30T03:01:18.152Z,100993.28
2022-11-30T03:03:46.720Z,100992.50
2022-11-30T03:06:15.140Z,100987.41
2022-11-30T03:08:43.377Z,100989.84
2022-11-30T03:11:11.620Z,100981.13
2022-11-30T03:13:39.902Z,100982.97
2022-11-30T03:16:09.384Z,100982.19
2022-11-30T03:18:40.302Z,100984.81
2022-11-30T03:21:09.573Z,100990.72
2022-11-30T03:23:38.120Z,100992.59
2022-11-30T03:26:08.119Z,100989.38
2022-11-30T03:28:36.895Z,100991.81
2022-11-30T03:31:06.011Z,100997.13
2022-11-30T03:33:34.320Z,100989.28
2022-11-30T03:36:06.412Z,100992.75
2022-11-30T03:38:35.051Z,100996.03
2022-11-30T03:41:04.197Z,100991.00
2022-11-30T03:43:32.787Z,100992.75
2022-11-30T03:46:01.363Z,100998.63
2022-11-30T03:48:30.805Z,100996.84
2022-11-30T03:51:00.146Z,100997.06
2022-11-30T03:53:29.860Z,100994.31
2022-11-30T03:56:00.425Z,100999.56
2022-11-30T03:58:29.239Z,100990.78
2022-11-30T04:01:02.028Z,100993.38
2022-11-30T04:03:31.140Z,100988.28
2022-11-30T04:06:00.133Z,100998.72
2022-11-30T04:08:30.339Z,100992.81
2022-11-30T04:11:00.349Z,101000.59
2022-11-30T04:13:29.189Z,100991.88
2022-11-30T04:15:57.518Z,100998.94
2022-11-30T04:18:27.568Z,101002.38
2022-11-30T04:20:57.674Z,101000.28
2022-11-30T04:23:27.420Z,101004.84
2022-11-30T04:25:58.494Z,101010.13
2022-11-30T04:28:27.003Z,101008.41
2022-11-30T04:30:56.076Z,101010.97
2022-11-30T04:33:25.121Z,101012.59
2022-11-30T04:35:56.275Z,101007.19
2022-11-30T04:38:25.359Z,101008.13
2022-11-30T04:40:54.260Z,101011.72
2022-11-30T04:43:24.924Z,101011.06
2022-11-30T04:45:54.116Z,101013.31
2022-11-30T04:48:22.679Z,101012.72
2022-11-30T04:50:50.898Z,101013.44
2022-11-30T04:53:19.125Z,101021.06
2022-11-30T04:55:47.308Z,101021.06
2022-11-30T04:58:15.584Z,101023.72
2022-11-30T05:00:45.227Z,101028.16
2022-11-30T05:03:13.708Z,101030.66
2022-11-30T05:05:41.890Z,101029.31
2022-11-30T05:08:11.181Z,101038.91
2022-11-30T05:10:39.382Z,101039.66
2022-11-30T05:13:07.665Z,101033.34
2022-11-30T05:15:35.878Z,101036.06
2022-11-30T05:18:06.371Z,101035.28
2022-11-30T05:20:34.666Z,101041.31
2022-11-30T05:23:03.338Z,101035.22
2022-11-30T05:25:31.609Z,101028.22
2022-11-30T05:27:59.808Z,101043.91
2022-11-30T05:30:28.300Z,101041.50
2022-11-30T05:35:26.262Z,101032.84
2022-11-30T05:37:54.639Z,101031.13
2022-11-30T05:40:22.833Z,101037.19
2022-11-30T05:42:56.852Z,101029.50
2022-11-30T05:45:25.255Z,101033.03
2022-11-30T05:47:53.848Z,101034.66
2022-11-30T05:50:22.650Z,101033.84
2022-11-30T05:52:56.457Z,101039.13
2022-11-30T05:55:25.200Z,101043.56
2022-11-30T05:57:53.807Z,101038.25
2022-11-30T06:00:23.099Z,101031.38
2022-11-30T06:02:57.425Z,101037.59
2022-11-30T06:05:27.952Z,101033.28
2022-11-30T06:08:01.761Z,101028.19
2022-11-30T06:10:30.226Z,101026.53
2022-11-30T06:12:58.464Z,101029.97
2022-11-30T06:15:26.717Z,101035.13
2022-11-30T06:17:57.397Z,101031.81
2022-11-30T06:20:25.743Z,101040.56
2022-11-30T06:22:54.031Z,101044.00
2022-11-30T06:25:24.348Z,101041.41
2022-11-30T06:27:52.566Z,101042.28
2022-11-30T06:30:21.488Z,101038.03
2022-11-30T06:32:51.476Z,101030.03
2022-11-30T06:35:20.599Z,101030.03
2022-11-30T06:37:48.876Z,101035.31
2022-11-30T06:40:17.251Z,101042.28
2022-11-30T06:42:46.922Z,101048.25
2022-11-30T06:45:15.432Z,101050.91
2022-11-30T06:47:43.613Z,101051.00
2022-11-30T06:50:12.694Z,101044.13
2022-11-30T06:52:40.935Z,101048.44
2022-11-30T06:55:09.798Z,101045.97
2022-11-30T06:57:38.034Z,101049.53
2022-11-30T07:00:09.380Z,101052.19
2022-11-30T07:02:38.180Z,101050.50
2022-11-30T07:05:06.988Z,101056.66
2022-11-30T07:07:35.535Z,101054.06
2022-11-30T07:10:04.077Z,101049.81
2022-11-30T07:12:32.315Z,101053.31
2022-11-30T07:15:00.561Z,101053.38
2022-11-30T07:17:31.077Z,101054.34
2022-11-30T07:19:59.343Z,101049.34
2022-11-30T07:22:27.651Z,101056.31
2022-11-30T07:25:13.117Z,101062.41
2022-11-30T07:27:41.304Z,101065.94
2022-11-30T07:30:10.427Z,101071.94
2022-11-30T07:32:40.316Z,101075.34
2022-11-30T07:35:09.174Z,101081.28
2022-11-30T07:37:37.371Z,101080.47
2022-11-30T07:40:06.634Z,101083.88
2022-11-30T07:42:35.148Z,101079.66
2022-11-30T07:45:03.639Z,101084.81
2022-11-30T07:47:31.989Z,101092.66
2022-11-30T07:50:01.991Z,101094.34
2022-11-30T07:52:32.344Z,101102.28
2022-11-30T07:55:00.598Z,101098.72
2022-11-30T07:57:30.184Z,101107.38
2022-11-30T07:59:58.680Z,101102.19
2022-11-30T08:02:27.002Z,101105.72
2022-11-30T08:04:58.537Z,101103.94
2022-11-30T08:07:28.293Z,101100.56
2022-11-30T08:09:56.624Z,101101.31
2022-11-30T08:12:25.759Z,101102.16
2022-11-30T08:15:18.707Z,101113.34
2022-11-30T08:17:42.330Z,101111.66
2022-11-30T08:20:13.011Z,101117.50
2022-11-30T08:22:42.880Z,101116.63
2022-11-30T08:25:12.449Z,101114.69
2022-11-30T08:27:40.661Z,101117.34
2022-11-30T08:30:10.160Z,101115.66
2022-11-30T08:32:38.765Z,101115.47
2022-11-30T08:35:07.824Z,101126.59
2022-11-30T08:37:38.700Z,101126.38
2022-11-30T08:40:09.535Z,101127.19
2022-11-30T08:42:37.840Z,101129.53
2022-11-30T08:45:06.953Z,101135.25
2022-11-30T08:47:35.749Z,101137.66
2022-11-30T08:50:04.152Z,101143.63
2022-11-30T08:52:32.357Z,101141.94
2022-11-30T08:55:00.541Z,101143.53
2022-11-30T08:57:31.733Z,101147.72
2022-11-30T08:59:59.998Z,101145.19
2022-11-30T09:02:29.536Z,101148.47
2022-11-30T09:04:58.046Z,101144.09
2022-11-30T09:07:26.270Z,101148.44
2022-11-30T09:09:54.582Z,101148.53
2022-11-30T09:12:22.840Z,101144.84
2022-11-30T09:14:57.644Z,101144.59
2022-11-30T09:17:27.129Z,101147.22
2022-11-30T09:19:56.116Z,101149.59
2022-11-30T09:22:24.499Z,101162.44
2022-11-30T09:24:52.952Z,101152.09
2022-11-30T09:27:21.327Z,101158.31
2022-11-30T09:29:49.530Z,101170.50
2022-11-30T09:32:19.204Z,101166.69
2022-11-30T09:34:50.494Z,101171.78
2022-11-30T09:37:19.144Z,101178.25
2022-11-30T09:39:47.391Z,101181.41
2022-11-30T09:42:27.547Z,101172.13
2022-11-30T09:45:03.206Z,101175.41
2022-11-30T09:47:47.940Z,101177.41
2022-11-30T09:50:19.841Z,101175.94
2022-11-30T09:52:53.081Z,101179.56
2022-11-30T09:55:29.043Z,101185.22
2022-11-30T09:58:02.008Z,101187.53
2022-11-30T10:00:30.551Z,101183.16
2022-11-30T10:03:05.065Z,101184.00
2022-11-30T10:05:47.052Z,101194.16
2022-11-30T10:08:28.819Z,101193.56
2022-11-30T10:11:11.870Z,101190.88
2022-11-30T10:13:55.491Z,101186.09
2022-11-30T10:16:33.990Z,101190.13
2022-11-30T10:19:14.086Z,101196.84
2022-11-30T10:21:58.012Z,101197.03
2022-11-30T10:24:37.181Z,101194.63
2022-11-30T10:27:17.736Z,101199.16
2022-11-30T10:29:46.126Z,101207.72
2022-11-30T10:32:20.744Z,101202.97
2022-11-30T10:34:54.245Z,101205.91
2022-11-30T10:37:35.523Z,101204.94
2022-11-30T10:40:07.101Z,101210.34
2022-11-30T10:42:43.134Z,101205.91
2022-11-30T10:45:14.884Z,101200.25
2022-11-30T10:47:48.241Z,101209.47
2022-11-30T10:50:19.192Z,101210.66
2022-11-30T10:52:49.996Z,101203.47
2022-11-30T10:55:21.762Z,101211.06
2022-11-30T10:57:55.766Z,101203.91
2022-11-30T11:00:24.778Z,101209.63
2022-11-30T11:02:53.652Z,101213.00
2022-11-30T11:05:26.155Z,101215.28
2022-11-30T11:08:01.297Z,101217.78
2022-11-30T11:10:37.475Z,101217.66
2022-11-30T11:13:07.461Z,101219.25
2022-11-30T11:15:36.758Z,101217.94
2022-11-30T11:18:24.432Z,101215.63
2022-11-30T11:21:06.542Z,101212.00
2022-11-30T11:23:37.272Z,101199.94
2022-11-30T11:26:07.121Z,101192.88
2022-11-30T11:28:39.459Z,101188.38
2022-11-30T11:31:20.806Z,101183.97
2022-11-30T11:33:55.041Z,101191.13
2022-11-30T11:36:29.617Z,101188.66
2022-11-30T11:38:59.188Z,101186.25
2022-11-30T11:41:31.499Z,101197.13
2022-11-30T11:44:05.584Z,101186.56
2022-11-30T11:46:36.677Z,101191.78
2022-11-30T11:49:07.169Z,101187.88
2022-11-30T11:51:39.731Z,101195.56
2022-11-30T11:54:13.496Z,101192.75
2022-11-30T11:56:42.480Z,101187.38
2022-11-30T11:59:20.404Z,101187.09
2022-11-30T12:01:57.556Z,101190.06
2022-11-30T12:04:43.905Z,101188.25
2022-11-30T12:07:22.347Z,101179.44
2022-11-30T12:10:21.967Z,101179.28
2022-11-30T12:12:55.125Z,101185.97
2022-11-30T12:15:32.397Z,101180.56
2022-11-30T12:18:14.351Z,101174.69
2022-11-30T12:20:55.421Z,101185.25
2022-11-30T12:23:51.067Z,101183.63
2022-11-30T12:26:29.701Z,101183.84
2022-11-30T12:29:18.016Z,101181.16
2022-11-30T12:32:03.472Z,101196.56
2022-11-30T12:34:52.028Z,101196.84
2022-11-30T12:37:28.281Z,101201.72
2022-11-30T12:40:05.724Z,101205.25
2022-11-30T12:42:43.306Z,101203.06
2022-11-30T12:45:18.760Z,101206.03
2022-11-30T12:47:56.475Z,101208.34
2022-11-30T12:50:38.693Z,101204.59
2022-11-30T12:53:17.822Z,101219.16
2022-11-30T12:55:55.076Z,101206.50
2022-11-30T12:58:32.328Z,101210.97
2022-11-30T13:01:14.932Z,101215.97
2022-11-30T13:03:49.611Z,101213.47
2022-11-30T13:06:24.549Z,101212.97
2022-11-30T13:09:02.505Z,101219.72
2022-11-30T13:11:37.857Z,101208.63
2022-11-30T13:14:22.645Z,101209.38
2022-11-30T13:16:57.587Z,101218.47
2022-11-30T13:19:40.315Z,101219.63
2022-11-30T13:22:16.077Z,101217.09
2022-11-30T13:24:49.014Z,101210.06
2022-11-30T13:27:25.839Z,101215.13
2022-11-30T13:30:08.261Z,101214.31
2022-11-30T13:35:54.919Z,101207.97
2022-11-30T13:38:39.238Z,101205.38
2022-11-30T13:41:09.752Z,101209.59
2022-11-30T13:43:45.556Z,101210.28
2022-11-30T13:46:20.371Z,101213.22
2022-11-30T13:48:49.646Z,101202.59
2022-11-30T13:51:37.209Z,101196.59
2022-11-30T13:54:44.477Z,101198.16
2022-11-30T13:57:49.804Z,101197.41
2022-11-30T14:00:46.903Z,101195.72
2022-11-30T14:03:26.187Z,101200.41
2022-11-30T14:05:55.664Z,101198.25
2022-11-30T14:08:35.750Z,101205.50
2022-11-30T14:11:39.472Z,101201.09
2022-11-30T14:14:45.385Z,101194.88
2022-11-30T14:17:19.600Z,101198.91
2022-11-30T14:19:51.625Z,101203.38
2022-11-30T14:22:20.322Z,101210.72
2022-11-30T14:24:50.572Z,101204.66
2022-11-30T14:27:22.508Z,101207.16
2022-11-30T14:29:53.879Z,101203.09
2022-11-30T14:32:37.941Z,101195.22
2022-11-30T14:35:12.580Z,101189.34
2022-11-30T14:37:53.991Z,101198.09
2022-11-30T14:40:23.991Z,101192.28
2022-11-30T14:42:55.591Z,101199.13
2022-11-30T14:45:27.191Z,101190.31
2022-11-30T14:48:07.636Z,101194.03
2022-11-30T14:50:37.908Z,101188.94
2022-11-30T14:53:19.214Z,101190.97
2022-11-30T14:55:52.688Z,101188.56
2022-11-30T14:58:26.697Z,101186.72
2022-11-30T15:00:56.124Z,101197.19
2022-11-30T15:03:29.171Z,101204.88
2022-11-30T15:06:00.272Z,101199.88
2022-11-30T15:08:36.134Z,101205.22
2022-11-30T15:11:06.523Z,101202.97
2022-11-30T15:13:39.116Z,101201.03
2022-11-30T15:16:10.515Z,101207.38
2022-11-30T15:18:40.578Z,101204.81
2022-11-30T15:21:15.593Z,101205.69
2022-11-30T15:23:49.404Z,101206.88
2022-11-30T15:26:23.966Z,101209.28
2022-11-30T15:28:57.633Z,101219.09
2022-11-30T15:31:27.592Z,101216.81
2022-11-30T15:33:57.577Z,101214.16
2022-11-30T15:36:33.318Z,101213.41
2022-11-30T15:39:05.705Z,101220.72
2022-11-30T15:41:35.957Z,101219.00
2022-11-30T15:44:04.843Z,101236.31
2022-11-30T15:46:37.749Z,101236.31
2022-11-30T15:49:18.883Z,101240.81
2022-11-30T15:51:52.061Z,101236.91
2022-11-30T15:54:44.022Z,101244.00
2022-11-30T15:57:12.638Z,101241.72
2022-11-30T15:59:41.207Z,101255.63
2022-11-30T16:02:25.950Z,101248.13
2022-11-30T16:05:27.772Z,101250.09
2022-11-30T16:08:00.105Z,101250.19
2022-11-30T16:10:31.463Z,101247.91
2022-11-30T16:12:59.734Z,101249.66
2022-11-30T16:15:30.228Z,101248.06
2022-11-30T16:18:01.349Z,101245.69
2022-11-30T16:20:31.073Z,101251.88
2022-11-30T16:23:05.320Z,101252.75
2022-11-30T16:25:34.152Z,101247.69
2022-11-30T16:28:03.006Z,101248.50
2022-11-30T16:30:31.955Z,101252.88
2022-11-30T16:33:00.528Z,101270.19
2022-11-30T16:35:37.751Z,101276.25
2022-11-30T16:38:06.707Z,101284.03
2022-11-30T16:40:38.879Z,101291.84
2022-11-30T16:43:08.083Z,101302.22
2022-11-30T16:45:37.763Z,101304.84
2022-11-30T16:48:06.480Z,101314.38
2022-11-30T16:50:36.443Z,101322.13
2022-11-30T16:53:05.729Z,101319.59
2022-11-30T16:55:37.863Z,101325.66
2022-11-30T16:58:07.116Z,101329.16
2022-11-30T17:00:35.871Z,101328.31
2022-11-30T17:03:09.404Z,101337.00
2022-11-30T17:05:39.098Z,101343.84
2022-11-30T17:08:07.434Z,101348.09
2022-11-30T17:10:35.704Z,101347.31
2022-11-30T17:13:03.942Z,101346.41
2022-11-30T17:15:32.433Z,101358.47
2022-11-30T17:18:00.706Z,101367.03
2022-11-30T17:20:29.225Z,101365.38
2022-11-30T17:22:58.942Z,101370.47
2022-11-30T17:25:27.289Z,101375.59
2022-11-30T17:27:55.747Z,101379.00
2022-11-30T17:30:24.128Z,101385.91
2022-11-30T17:32:52.421Z,101391.06
2022-11-30T17:35:20.940Z,101399.75
2022-11-30T17:37:49.162Z,101393.72
2022-11-30T17:40:19.238Z,101408.34
2022-11-30T17:42:47.513Z,101410.00
2022-11-30T17:45:15.912Z,101411.72
2022-11-30T17:47:44.296Z,101407.44
2022-11-30T17:50:15.697Z,101410.88
2022-11-30T17:52:44.009Z,101410.06
2022-11-30T17:55:12.210Z,101421.22
2022-11-30T17:57:41.791Z,101426.38
2022-11-30T18:00:12.111Z,101432.41
2022-11-30T18:02:40.340Z,101427.28
2022-11-30T18:05:09.235Z,101435.91
2022-11-30T18:07:37.548Z,101439.31
2022-11-30T18:10:08.225Z,101444.44
2022-11-30T18:12:36.422Z,101441.88
2022-11-30T18:15:06.852Z,101445.25
2022-11-30T18:17:35.578Z,101446.97
2022-11-30T18:20:03.922Z,101452.09
2022-11-30T18:22:32.959Z,101452.13
2022-11-30T18:25:01.455Z,101446.13
2022-11-30T18:27:29.775Z,101452.19
2022-11-30T18:29:58.143Z,101447.88
2022-11-30T18:32:29.156Z,101450.44
2022-11-30T18:34:59.007Z,101456.50
2022-11-30T18:37:27.285Z,101460.78
2022-11-30T18:39:55.727Z,101464.25
2022-11-30T18:42:24.263Z,101460.75
2022-11-30T18:44:52.516Z,101465.94
2022-11-30T18:47:21.031Z,101475.34
2022-11-30T18:49:50.732Z,101476.25
2022-11-30T18:52:19.079Z,101479.69
2022-11-30T18:54:48.066Z,101487.38
2022-11-30T18:57:17.859Z,101484.84
2022-11-30T18:59:48.716Z,101490.84
2022-11-30T19:02:20.236Z,101490.88
2022-11-30T19:04:48.779Z,101506.31
2022-11-30T19:07:18.692Z,101503.75
2022-11-30T19:09:47.455Z,101504.56
2022-11-30T19:12:15.960Z,101508.88
2022-11-30T19:14:45.497Z,101510.59
2022-11-30T19:17:14.114Z,101511.44
2022-11-30T19:19:42.551Z,101521.75
2022-11-30T19:22:10.830Z,101515.75
2022-11-30T19:24:40.514Z,101513.16
2022-11-30T19:27:08.792Z,101507.16
2022-11-30T19:29:36.995Z,101510.63
2022-11-30T19:32:05.502Z,101517.47
2022-11-30T19:34:33.732Z,101518.31
2022-11-30T19:37:01.952Z,101521.75
2022-11-30T19:39:30.222Z,101515.78
2022-11-30T19:41:59.952Z,101524.34
2022-11-30T19:44:30.068Z,101534.59
2022-11-30T19:46:58.294Z,101540.63
2022-11-30T19:49:26.605Z,101546.66
2022-11-30T19:51:54.940Z,101548.34
2022-11-30T19:54:23.372Z,101554.38
2022-11-30T19:56:51.571Z,101543.19
2022-11-30T19:59:21.370Z,101544.91
2022-11-30T20:01:49.712Z,101554.31
2022-11-30T20:04:18.038Z,101553.47
2022-11-30T20:06:46.264Z,101552.63
2022-11-30T20:09:14.562Z,101557.75
2022-11-30T20:11:42.793Z,101556.91
2022-11-30T20:14:16.438Z,101561.19
2022-11-30T20:16:47.047Z,101565.47
2022-11-30T20:19:16.973Z,101561.19
2022-11-30T20:21:45.339Z,101560.31
2022-11-30T20:24:13.681Z,101563.75
2022-11-30T20:26:43.986Z,101570.59
2022-11-30T20:29:14.750Z,101565.47
2022-11-30T20:31:44.039Z,101566.31
2022-11-30T20:34:14.176Z,101570.59
2022-11-30T20:36:42.461Z,101576.59
2022-11-30T20:39:11.835Z,101563.69
2022-11-30T20:41:42.391Z,101570.56
2022-11-30T20:44:14.543Z,101570.53
2022-11-30T20:46:43.048Z,101575.66
2022-11-30T20:49:17.632Z,101579.97
2022-11-30T20:51:47.116Z,101581.66
2022-11-30T20:54:16.009Z,101597.97
2022-11-30T20:56:44.581Z,101596.28
2022-11-30T20:59:16.046Z,101600.56
2022-11-30T21:01:46.480Z,101600.56
2022-11-30T21:04:17.285Z,101610.03
2022-11-30T21:06:46.486Z,101610.03
2022-11-30T21:09:16.234Z,101597.16
2022-11-30T21:11:45.691Z,101609.19
2022-11-30T21:14:17.685Z,101613.47
2022-11-30T21:16:46.234Z,101613.44
2022-11-30T21:19:16.749Z,101617.72
2022-11-30T21:21:45.130Z,101624.56
2022-11-30T21:24:14.627Z,101621.13
2022-11-30T21:26:44.005Z,101618.53
2022-11-30T21:29:14.642Z,101636.50
2022-11-30T21:31:43.302Z,101624.47
2022-11-30T21:34:11.623Z,101629.63
2022-11-30T21:36:41.300Z,101628.75
2022-11-30T21:39:10.892Z,101631.28
2022-11-30T21:41:41.504Z,101638.13
2022-11-30T21:44:12.721Z,101630.34
2022-11-30T21:46:41.438Z,101633.75
2022-11-30T21:49:09.978Z,101627.78
2022-11-30T21:51:38.741Z,101628.63
2022-11-30T21:54:09.810Z,101627.72
2022-11-30T21:56:39.877Z,101629.41
2022-11-30T21:59:09.746Z,101632.81
2022-11-30T22:01:39.839Z,101633.69
2022-11-30T22:04:09.757Z,101646.56
2022-11-30T22:06:39.580Z,101651.72
2022-11-30T22:09:13.948Z,101650.00
2022-11-30T22:11:45.096Z,101653.44
2022-11-30T22:14:16.176Z,101653.47
2022-11-30T22:16:45.174Z,101657.75
2022-11-30T22:19:13.378Z,101656.09
2022-11-30T22:21:46.780Z,101661.25
2022-11-30T22:24:20.649Z,101661.25
2022-11-30T22:26:50.697Z,101657.75
2022-11-30T22:29:21.225Z,101656.88
2022-11-30T22:31:52.119Z,101654.25
2022-11-30T22:34:20.811Z,101665.38
2022-11-30T22:36:50.156Z,101653.34
2022-11-30T22:39:21.463Z,101661.88
2022-11-30T22:41:55.055Z,101656.69
2022-11-30T22:44:25.621Z,101660.94
2022-11-30T22:46:54.287Z,101660.09
2022-11-30T22:49:23.423Z,101675.53
2022-11-30T22:51:52.365Z,101675.53
2022-11-30T22:54:21.986Z,101664.44
2022-11-30T22:56:50.219Z,101672.16
2022-11-30T22:59:19.328Z,101664.47
2022-11-30T23:01:49.799Z,101661.84
2022-11-30T23:04:19.818Z,101670.41
2022-11-30T23:06:49.492Z,101679.84
2022-11-30T23:09:19.225Z,101667.88
2022-11-30T23:11:50.029Z,101672.16
2022-11-30T23:14:19.329Z,101672.16
2022-11-30T23:16:48.052Z,101672.16
2022-11-30T23:19:16.452Z,101672.16
2022-11-30T23:21:46.013Z,101677.28
2022-11-30T23:24:16.189Z,101689.28
2022-11-30T23:26:45.572Z,101691.00
2022-11-30T23:29:16.400Z,101688.44
2022-11-30T23:31:46.240Z,101688.41
2022-11-30T23:34:16.877Z,101687.53
2022-11-30T23:36:45.565Z,101689.25
2022-11-30T23:39:15.915Z,101694.34
2022-11-30T23:41:44.609Z,101708.00
2022-11-30T23:44:14.687Z,101707.19
2022-11-30T23:46:43.115Z,101707.22
2022-11-30T23:49:14.656Z,101723.50
2022-11-30T23:51:44.600Z,101721.81
2022-11-30T23:54:13.312Z,101720.09
2022-11-30T23:56:41.672Z,101718.41
2022-11-30T23:59:10.118Z,101731.28
